Time;durP1;ratioP1;P1;durP2;ratioP2;P2;SDS_P1;SDS_P2;PMS_P1;PMS_P2;Temp;Humidity;BMP_temperature;BMP_pressure;BME280_temperature;BME280_humidity;BME280_pressure;Samples;Min_cycle;Max_cycle;Signal;HPM_P1;HPM_P2
2022/11/23 00:00:33;;;;;;;21.67;16.23;;;7.30;99.90;;;;;;5116504;28;20482;-65
2022/11/23 00:02:59;;;;;;;23.45;16.15;;;7.30;99.90;;;;;;5117662;28;20370;-65
2022/11/23 00:05:26;;;;;;;21.33;16.05;;;7.30;99.90;;;;;;5117605;28;20054;-65
2022/11/23 00:07:52;;;;;;;18.60;15.52;;;7.50;99.90;;;;;;5117280;28;20536;-66
2022/11/23 00:10:18;;;;;;;20.48;16.10;;;7.50;99.90;;;;;;5117163;28;20153;-65
2022/11/23 00:12:44;;;;;;;24.20;16.48;;;7.40;99.90;;;;;;5117370;28;20089;-66
2022/11/23 00:15:12;;;;;;;25.98;16.42;;;7.40;99.90;;;;;;5117432;28;20474;-66
2022/11/23 00:17:38;;;;;;;22.23;16.15;;;7.60;99.90;;;;;;5117445;28;20067;-65
2022/11/23 00:20:06;;;;;;;24.75;15.82;;;7.50;99.90;;;;;;5116703;28;20091;-66
2022/11/23 00:22:31;;;;;;;23.50;16.13;;;7.50;99.90;;;;;;5117448;28;20044;-66
2022/11/23 00:24:57;;;;;;;19.17;15.05;;;7.50;99.90;;;;;;5117330;28;20088;-66
2022/11/23 00:27:23;;;;;;;20.52;15.27;;;7.50;99.90;;;;;;5117072;28;20084;-65
2022/11/23 00:29:48;;;;;;;20.10;14.10;;;7.60;99.90;;;;;;5117008;28;20086;-66
2022/11/23 00:32:14;;;;;;;19.83;15.02;;;7.60;99.90;;;;;;5117241;28;20083;-66
2022/11/23 00:34:39;;;;;;;15.95;14.07;;;7.60;99.90;;;;;;5116758;28;20046;-65
2022/11/23 00:37:05;;;;;;;21.15;13.93;;;7.50;99.90;;;;;;5116993;28;20067;-65
2022/11/23 00:39:31;;;;;;;18.85;14.35;;;7.50;99.90;;;;;;5097790;28;20490;-66
2022/11/23 00:41:56;;;;;;;24.75;14.90;;;7.60;99.90;;;;;;5116642;28;20545;-65
2022/11/23 00:44:22;;;;;;;17.55;12.98;;;7.60;99.90;;;;;;5098127;28;20052;-66
2022/11/23 00:46:47;;;;;;;23.65;14.00;;;8.30;99.90;;;;;;5116463;28;20092;-65
2022/11/23 00:49:13;;;;;;;21.15;13.98;;;7.70;99.90;;;;;;5116501;28;20043;-66
2022/11/23 00:51:39;;;;;;;17.75;13.82;;;7.70;99.90;;;;;;5097882;28;20054;-66
2022/11/23 00:54:06;;;;;;;20.20;12.90;;;7.60;99.90;;;;;;5116737;28;20450;-65
2022/11/23 00:56:33;;;;;;;15.30;12.05;;;7.60;99.90;;;;;;5116302;28;20466;-66
2022/11/23 00:59:00;;;;;;;20.13;12.77;;;7.60;99.90;;;;;;5116552;28;20081;-65
2022/11/23 01:01:29;;;;;;;20.15;13.20;;;7.60;99.90;;;;;;5116217;28;20035;-65
2022/11/23 01:03:57;;;;;;;15.25;12.27;;;7.70;99.90;;;;;;5116843;28;20120;-65
2022/11/23 01:06:28;;;;;;;19.42;12.60;;;7.70;99.90;;;;;;5116401;28;20028;-66
2022/11/23 01:08:57;;;;;;;18.65;12.10;;;7.80;99.90;;;;;;5116246;28;20040;-66
2022/11/23 01:11:25;;;;;;;18.33;12.48;;;7.80;99.90;;;;;;5097163;28;20516;-66
2022/11/23 01:13:51;;;;;;;18.37;12.80;;;7.80;99.90;;;;;;5116139;28;20038;-65
2022/11/23 01:16:23;;;;;;;16.45;12.40;;;7.90;99.90;;;;;;5116129;28;20039;-66
2022/11/23 01:18:55;;;;;;;18.23;11.73;;;7.70;99.90;;;;;;5115787;28;20535;-66
2022/11/23 01:21:22;;;;;;;17.48;12.55;;;7.70;99.90;;;;;;5115681;28;20058;-65
2022/11/23 01:23:47;;;;;;;19.70;11.55;;;7.80;99.90;;;;;;5116155;28;20036;-66
2022/11/23 01:26:13;;;;;;;17.40;11.48;;;7.80;99.90;;;;;;5115940;28;20088;-66
2022/11/23 01:28:39;;;;;;;16.15;11.95;;;7.90;99.90;;;;;;5115997;28;20080;-66
2022/11/23 01:31:11;;;;;;;18.70;11.40;;;7.80;99.90;;;;;;5115936;28;20362;-66
2022/11/23 01:33:38;;;;;;;17.00;11.85;;;7.80;99.90;;;;;;5116012;28;20058;-66
2022/11/23 01:36:18;;;;;;;18.75;11.85;;;7.90;99.90;;;;;;5115785;28;20075;-65
2022/11/23 01:38:45;;;;;;;17.73;11.85;;;7.80;99.90;;;;;;5115784;28;20036;-66
2022/11/23 01:41:16;;;;;;;17.08;11.80;;;7.90;99.90;;;;;;5097160;28;20114;-65
2022/11/23 01:43:42;;;;;;;15.43;11.68;;;7.80;99.90;;;;;;5115681;28;20114;-65
2022/11/23 01:46:08;;;;;;;15.93;11.55;;;7.90;99.90;;;;;;5115415;28;20561;-65
2022/11/23 01:48:47;;;;;;;20.63;12.00;;;8.00;99.90;;;;;;5115356;28;20039;-66
2022/11/23 01:51:17;;;;;;;19.98;11.30;;;7.80;99.90;;;;;;5115340;28;20065;-66
2022/11/23 01:53:44;;;;;;;17.95;11.38;;;8.00;99.90;;;;;;5115168;28;20131;-66
2022/11/23 01:56:18;;;;;;;18.00;11.35;;;7.90;99.90;;;;;;5115535;28;20092;-66
2022/11/23 01:58:47;;;;;;;14.25;11.10;;;7.80;99.90;;;;;;5115380;28;20043;-66
2022/11/23 02:01:14;;;;;;;14.93;10.90;;;8.00;99.90;;;;;;5115188;28;20439;-66
2022/11/23 02:03:41;;;;;;;16.92;11.82;;;7.80;99.90;;;;;;5115507;28;20035;-66
2022/11/23 02:06:13;;;;;;;14.50;11.75;;;7.90;99.90;;;;;;5115030;28;20043;-66
2022/11/23 02:08:40;;;;;;;19.35;11.88;;;7.80;99.90;;;;;;5114919;28;20051;-66
2022/11/23 02:11:06;;;;;;;21.38;12.85;;;7.90;99.90;;;;;;5115275;28;20043;-65
2022/11/23 02:13:32;;;;;;;16.45;12.23;;;7.90;99.90;;;;;;5115199;28;20051;-66
2022/11/23 02:15:58;;;;;;;22.02;13.00;;;7.90;99.90;;;;;;5115120;28;20039;-66
2022/11/23 02:18:30;;;;;;;16.75;11.65;;;8.00;99.90;;;;;;5096207;28;20077;-66
2022/11/23 02:20:58;;;;;;;21.65;12.23;;;8.00;99.90;;;;;;5114916;28;20047;-65
2022/11/23 02:23:44;;;;;;;17.77;12.63;;;8.00;99.90;;;;;;5113659;28;20525;-66
2022/11/23 02:26:20;;;;;;;20.23;13.25;;;7.90;99.90;;;;;;5115072;28;20035;-66
2022/11/23 02:29:10;;;;;;;21.15;12.10;;;7.80;99.90;;;;;;5096798;28;20032;-65
2022/11/23 02:31:35;;;;;;;23.45;13.32;;;7.90;99.90;;;;;;5012028;28;20049;-65
2022/11/23 02:34:01;;;;;;;22.15;12.60;;;8.00;99.90;;;;;;5012279;28;20042;-65
2022/11/23 02:36:38;;;;;;;20.27;12.38;;;8.00;99.90;;;;;;5012237;28;20042;-66
2022/11/23 02:39:27;;;;;;;18.98;12.45;;;8.00;99.90;;;;;;5012263;28;20069;-65
2022/11/23 02:41:53;;;;;;;20.00;11.75;;;8.00;99.90;;;;;;4973004;28;20117;-66
2022/11/23 02:44:24;;;;;;;22.08;12.75;;;7.90;99.90;;;;;;4972999;28;20133;-66
2022/11/23 02:46:51;;;;;;;20.85;13.30;;;7.90;99.90;;;;;;4972909;28;20055;-67
2022/11/23 02:49:17;;;;;;;22.98;13.20;;;8.00;99.90;;;;;;4972903;28;20061;-66
2022/11/23 02:51:43;;;;;;;22.08;13.95;;;8.00;99.90;;;;;;4972961;28;20043;-66
2022/11/23 02:54:08;;;;;;;20.17;13.52;;;7.90;99.90;;;;;;4973018;28;20058;-66
2022/11/23 02:56:34;;;;;;;21.27;13.10;;;8.00;99.90;;;;;;4940753;28;20137;-66
2022/11/23 02:59:00;;;;;;;21.38;12.27;;;8.00;99.90;;;;;;4972675;28;20054;-66
2022/11/23 03:01:27;;;;;;;22.48;12.82;;;7.90;99.90;;;;;;4972751;28;20057;-66
2022/11/23 03:03:52;;;;;;;21.83;13.65;;;8.00;99.90;;;;;;4972661;28;20050;-66
2022/11/23 03:06:18;;;;;;;19.17;12.32;;;8.00;99.90;;;;;;4972766;28;20050;-66
2022/11/23 03:08:43;;;;;;;23.10;13.52;;;7.90;99.90;;;;;;5026950;28;20483;-66
2022/11/23 03:11:09;;;;;;;21.20;13.02;;;8.00;99.90;;;;;;5071313;28;20040;-66
2022/11/23 03:13:35;;;;;;;17.77;12.80;;;8.00;99.90;;;;;;5071279;28;20534;-65
2022/11/23 03:16:00;;;;;;;18.42;12.45;;;8.00;99.90;;;;;;5071230;28;20044;-66
2022/11/23 03:18:26;;;;;;;19.65;11.98;;;8.00;99.90;;;;;;5085044;28;20047;-66
2022/11/23 03:20:51;;;;;;;18.27;11.63;;;7.90;99.90;;;;;;5114077;28;20096;-65
2022/11/23 03:23:17;;;;;;;22.90;13.23;;;7.90;99.90;;;;;;5114153;28;20066;-66
2022/11/23 03:25:43;;;;;;;20.17;11.52;;;7.90;99.90;;;;;;5113907;28;20084;-66
2022/11/23 03:28:08;;;;;;;18.88;11.77;;;8.10;99.90;;;;;;5114079;28;20036;-65
2022/11/23 03:30:34;;;;;;;17.88;12.60;;;8.00;99.90;;;;;;5113959;28;20074;-66
2022/11/23 03:33:00;;;;;;;17.70;12.52;;;8.10;99.90;;;;;;5114182;28;20043;-66
2022/11/23 03:35:25;;;;;;;21.88;11.63;;;8.10;99.90;;;;;;5116769;28;20118;-66
2022/11/23 03:37:51;;;;;;;25.83;13.63;;;8.00;99.90;;;;;;5099588;28;20096;-67
2022/11/23 03:40:17;;;;;;;22.08;12.85;;;8.00;99.90;;;;;;5117770;28;20394;-66
2022/11/23 03:42:42;;;;;;;21.17;13.48;;;8.00;99.90;;;;;;5118112;28;20071;-66
2022/11/23 03:45:08;;;;;;;18.90;13.10;;;8.10;99.90;;;;;;5118149;28;20036;-66
2022/11/23 03:47:35;;;;;;;17.60;13.23;;;8.00;99.90;;;;;;5099965;28;20478;-65
2022/11/23 03:50:00;;;;;;;23.92;13.25;;;8.10;99.90;;;;;;5118070;28;20043;-66
2022/11/23 03:52:46;;;;;;;20.42;13.45;;;8.20;99.90;;;;;;5117962;28;20050;-66
2022/11/23 03:55:12;;;;;;;21.85;13.43;;;8.10;99.90;;;;;;5082237;28;20395;-66
2022/11/23 03:57:37;;;;;;;24.48;14.65;;;8.10;99.90;;;;;;5117859;28;20031;-67
2022/11/23 04:00:03;;;;;;;24.83;14.05;;;7.90;99.90;;;;;;5117713;28;20043;-66
2022/11/23 04:02:29;;;;;;;21.50;15.02;;;8.10;99.90;;;;;;5099591;28;20040;-66
2022/11/23 04:04:55;;;;;;;24.52;15.60;;;8.10;99.90;;;;;;5117780;28;20461;-66
2022/11/23 04:07:20;;;;;;;27.67;16.13;;;8.10;99.90;;;;;;5117215;28;20119;-66
2022/11/23 04:09:46;;;;;;;27.58;15.93;;;8.10;99.90;;;;;;5117605;28;20036;-67
2022/11/23 04:12:11;;;;;;;26.80;16.05;;;8.10;99.90;;;;;;5117387;28;20043;-66
2022/11/23 04:14:37;;;;;;;24.27;16.00;;;8.10;99.90;;;;;;5117543;28;20038;-67
2022/11/23 04:17:03;;;;;;;30.88;17.38;;;8.10;99.90;;;;;;5117603;28;20039;-66
2022/11/23 04:19:28;;;;;;;35.55;17.88;;;8.00;99.90;;;;;;5116965;28;20506;-66
2022/11/23 04:21:54;;;;;;;31.10;17.25;;;8.10;99.90;;;;;;5117396;28;20106;-66
2022/11/23 04:24:20;;;;;;;26.10;17.08;;;8.10;99.90;;;;;;5117457;28;20064;-66
2022/11/23 04:26:46;;;;;;;31.52;16.98;;;8.00;99.90;;;;;;5117431;28;20036;-66
2022/11/23 04:29:11;;;;;;;29.90;17.50;;;8.10;99.90;;;;;;5117268;28;20031;-66
2022/11/23 04:31:37;;;;;;;29.30;17.42;;;8.00;99.90;;;;;;5116933;28;20093;-67
2022/11/23 04:34:03;;;;;;;34.15;19.35;;;8.10;99.90;;;;;;5117185;28;20039;-66
2022/11/23 04:36:28;;;;;;;30.15;18.83;;;8.10;99.90;;;;;;5116917;28;20040;-66
2022/11/23 04:38:54;;;;;;;26.90;18.10;;;8.10;99.90;;;;;;5117123;28;20397;-67
2022/11/23 04:41:21;;;;;;;31.00;18.55;;;8.00;99.90;;;;;;5098371;28;20042;-67
2022/11/23 04:43:47;;;;;;;33.88;20.02;;;8.00;99.90;;;;;;5116952;28;20061;-67
2022/11/23 04:46:13;;;;;;;34.72;18.67;;;8.10;99.90;;;;;;5115898;28;20042;-66
2022/11/23 04:48:38;;;;;;;30.67;18.67;;;8.10;99.90;;;;;;5116929;28;20036;-66
2022/11/23 04:51:04;;;;;;;30.63;19.73;;;8.10;99.90;;;;;;5116874;28;20090;-66
2022/11/23 04:53:30;;;;;;;30.42;19.27;;;8.00;99.90;;;;;;5116891;28;20059;-66
2022/11/23 04:55:55;;;;;;;34.80;20.65;;;8.00;99.90;;;;;;5116784;28;20511;-66
2022/11/23 04:58:21;;;;;;;32.33;19.15;;;8.10;99.90;;;;;;5116863;28;20424;-65
2022/11/23 05:00:47;;;;;;;33.63;20.38;;;8.00;99.90;;;;;;5116685;28;20039;-65
2022/11/23 05:03:12;;;;;;;38.45;20.45;;;7.90;99.90;;;;;;5116694;28;20115;-66
2022/11/23 05:05:39;;;;;;;29.75;20.15;;;8.00;99.90;;;;;;5116625;28;20043;-66
2022/11/23 05:08:05;;;;;;;30.55;19.92;;;8.00;99.90;;;;;;5116282;28;20043;-66
2022/11/23 05:10:31;;;;;;;34.78;21.13;;;7.90;99.90;;;;;;5116235;28;20086;-66
2022/11/23 05:12:56;;;;;;;32.22;20.42;;;8.10;99.90;;;;;;5116411;28;20043;-66
2022/11/23 05:15:22;;;;;;;32.00;19.92;;;8.00;99.90;;;;;;5116372;28;20096;-66
2022/11/23 05:17:48;;;;;;;36.88;20.80;;;8.10;99.90;;;;;;5116143;28;20105;-66
2022/11/23 05:20:13;;;;;;;32.63;21.33;;;8.10;99.90;;;;;;5115875;28;20051;-66
2022/11/23 05:22:39;;;;;;;36.78;20.45;;;8.10;99.90;;;;;;5116244;28;20097;-66
2022/11/23 05:25:05;;;;;;;33.15;20.73;;;8.00;99.90;;;;;;5097965;28;20039;-66
2022/11/23 05:27:31;;;;;;;35.22;20.58;;;8.10;99.90;;;;;;5116142;28;20035;-66
2022/11/23 05:29:57;;;;;;;31.15;20.75;;;8.10;99.90;;;;;;5116142;28;20123;-66
2022/11/23 05:32:22;;;;;;;33.65;21.13;;;8.10;99.90;;;;;;5116041;28;20067;-66
2022/11/23 05:34:48;;;;;;;34.33;20.85;;;8.10;99.90;;;;;;5115737;28;20046;-66
2022/11/23 05:37:14;;;;;;;37.20;22.27;;;8.00;99.90;;;;;;5116401;28;20043;-66
2022/11/23 05:39:40;;;;;;;34.97;21.23;;;8.20;99.90;;;;;;5115820;28;20167;-66
2022/11/23 05:42:05;;;;;;;38.13;21.67;;;8.20;99.90;;;;;;5115939;28;20488;-66
2022/11/23 05:44:31;;;;;;;33.50;22.13;;;8.10;99.90;;;;;;5115222;28;20050;-66
2022/11/23 05:46:56;;;;;;;37.72;21.67;;;8.20;99.90;;;;;;5115663;28;20032;-66
2022/11/23 05:49:22;;;;;;;50.28;24.13;;;8.10;99.90;;;;;;5115741;28;20034;-66
2022/11/23 05:51:48;;;;;;;33.15;21.80;;;8.20;99.90;;;;;;5115727;28;20404;-66
2022/11/23 05:54:13;;;;;;;34.60;22.08;;;8.10;99.90;;;;;;5115432;28;20032;-66
2022/11/23 05:56:39;;;;;;;35.08;22.67;;;8.10;99.90;;;;;;5115083;28;20063;-65
2022/11/23 05:59:06;;;;;;;32.20;21.55;;;8.20;99.90;;;;;;5115209;28;20040;-66
2022/11/23 06:01:32;;;;;;;31.85;22.02;;;8.20;99.90;;;;;;5114139;28;20039;-66
2022/11/23 06:03:58;;;;;;;35.17;22.05;;;8.20;99.90;;;;;;5115643;28;20385;-66
2022/11/23 06:06:23;;;;;;;31.45;22.42;;;8.20;99.90;;;;;;5114943;28;20040;-66
2022/11/23 06:08:49;;;;;;;36.10;22.50;;;8.20;99.90;;;;;;5114570;28;20076;-66
2022/11/23 06:11:15;;;;;;;29.23;21.25;;;8.30;99.90;;;;;;5114346;28;20048;-66
2022/11/23 06:13:44;;;;;;;33.03;20.95;;;8.20;99.90;;;;;;5115214;28;20079;-65
2022/11/23 06:16:10;;;;;;;32.63;20.85;;;8.20;99.90;;;;;;5115117;28;20079;-66
2022/11/23 06:18:36;;;;;;;33.83;21.45;;;8.30;99.90;;;;;;5114918;28;20044;-66
2022/11/23 06:21:01;;;;;;;32.20;21.45;;;8.20;99.90;;;;;;5115084;28;20131;-65
2022/11/23 06:23:27;;;;;;;33.08;19.83;;;8.30;99.90;;;;;;5114983;28;20136;-66
2022/11/23 06:25:53;;;;;;;31.83;19.35;;;8.20;99.90;;;;;;5115120;28;20075;-66
2022/11/23 06:28:18;;;;;;;32.67;19.48;;;8.20;99.90;;;;;;5114986;28;20453;-65
2022/11/23 06:30:44;;;;;;;30.10;18.88;;;8.20;99.90;;;;;;5114917;28;20122;-65
2022/11/23 06:33:10;;;;;;;26.38;17.50;;;8.10;99.90;;;;;;5096404;28;20120;-66
2022/11/23 06:35:35;;;;;;;32.85;18.63;;;8.20;99.90;;;;;;5114748;28;20085;-66
2022/11/23 06:38:01;;;;;;;29.60;18.35;;;8.20;99.90;;;;;;5114762;28;20036;-66
2022/11/23 06:40:27;;;;;;;25.70;17.52;;;8.30;99.90;;;;;;5114424;28;20035;-65
2022/11/23 06:42:59;;;;;;;24.90;16.20;;;8.20;99.90;;;;;;5114403;28;20114;-65
2022/11/23 06:45:26;;;;;;;26.92;15.95;;;8.10;99.90;;;;;;5114219;28;20496;-65
2022/11/23 06:47:55;;;;;;;26.25;15.27;;;8.10;99.90;;;;;;5114335;28;20482;-66
2022/11/23 06:50:21;;;;;;;29.35;15.40;;;8.20;99.90;;;;;;5114591;28;20077;-66
2022/11/23 06:52:47;;;;;;;25.83;16.50;;;8.10;99.90;;;;;;5114555;28;20075;-66
2022/11/23 06:55:12;;;;;;;31.02;16.58;;;8.10;99.90;;;;;;5114467;28;20084;-65
2022/11/23 06:57:38;;;;;;;25.52;15.27;;;8.20;99.90;;;;;;5114543;28;20149;-65
2022/11/23 07:00:04;;;;;;;24.33;15.75;;;8.20;99.90;;;;;;5114360;28;20123;-65
2022/11/23 07:02:30;;;;;;;25.48;14.77;;;8.10;99.90;;;;;;5114227;28;20392;-65
2022/11/23 07:04:56;;;;;;;27.23;14.55;;;8.20;99.90;;;;;;5114533;28;20126;-66
2022/11/23 07:07:21;;;;;;;20.63;14.45;;;8.20;99.90;;;;;;5112370;28;20036;-66
2022/11/23 07:09:47;;;;;;;24.58;14.50;;;8.10;99.90;;;;;;5111639;28;20126;-66
2022/11/23 07:12:12;;;;;;;21.73;12.80;;;8.10;99.90;;;;;;5112197;28;20093;-66
2022/11/23 07:14:38;;;;;;;19.95;13.43;;;8.00;99.90;;;;;;5095797;28;20039;-66
2022/11/23 07:17:04;;;;;;;21.42;11.60;;;8.10;99.90;;;;;;5114276;28;20047;-66
2022/11/23 07:19:29;;;;;;;20.25;12.57;;;8.10;99.90;;;;;;5113790;28;20120;-66
2022/11/23 07:21:55;;;;;;;18.48;12.43;;;8.10;99.90;;;;;;5114221;28;20466;-65
2022/11/23 07:24:21;;;;;;;20.70;12.13;;;8.00;99.90;;;;;;5094237;28;20086;-66
2022/11/23 07:26:47;;;;;;;19.60;11.50;;;8.10;99.90;;;;;;5112316;28;20036;-65
2022/11/23 07:29:12;;;;;;;20.55;11.40;;;8.00;99.90;;;;;;5112861;28;20050;-65
2022/11/23 07:31:38;;;;;;;18.75;11.15;;;8.00;99.90;;;;;;5112954;28;20047;-65
2022/11/23 07:34:04;;;;;;;17.20;10.60;;;8.00;99.90;;;;;;5112458;28;20084;-65
2022/11/23 07:36:29;;;;;;;22.77;10.32;;;8.00;99.90;;;;;;5111893;28;20028;-65
2022/11/23 07:38:55;;;;;;;20.73;11.00;;;8.00;99.90;;;;;;5111087;28;20031;-65
2022/11/23 07:41:21;;;;;;;16.35;9.75;;;8.10;99.90;;;;;;5092416;28;20054;-65
2022/11/23 07:43:47;;;;;;;18.88;10.02;;;8.00;99.90;;;;;;5093639;28;20489;-65
2022/11/23 07:46:12;;;;;;;21.33;11.00;;;8.00;99.90;;;;;;5093473;28;20047;-65
2022/11/23 07:48:38;;;;;;;15.70;9.65;;;8.00;99.90;;;;;;5094030;28;20046;-64
2022/11/23 07:51:03;;;;;;;17.35;9.68;;;8.00;99.90;;;;;;5112100;28;20126;-65
2022/11/23 07:53:29;;;;;;;15.07;9.82;;;8.10;99.90;;;;;;5093138;28;20054;-65
2022/11/23 07:55:58;;;;;;;19.23;9.75;;;8.10;99.90;;;;;;5093349;28;20075;-64
2022/11/23 07:58:24;;;;;;;15.13;9.50;;;8.00;99.90;;;;;;5112011;28;20500;-65
2022/11/23 08:00:49;;;;;;;24.58;10.70;;;8.00;99.90;;;;;;5093203;28;20043;-65
2022/11/23 08:03:15;;;;;;;15.52;9.07;;;8.00;99.90;;;;;;5112215;28;20126;-64
2022/11/23 08:05:41;;;;;;;17.05;8.98;;;8.10;99.90;;;;;;5112199;28;20028;-64
2022/11/23 08:08:06;;;;;;;21.83;9.40;;;8.10;99.90;;;;;;5111716;28;20038;-64
2022/11/23 08:10:32;;;;;;;17.55;9.00;;;8.00;99.90;;;;;;5111981;28;20040;-65
2022/11/23 08:13:03;;;;;;;17.88;8.93;;;8.10;99.90;;;;;;5111827;28;20086;-65
2022/11/23 08:15:29;;;;;;;17.38;8.55;;;8.00;99.90;;;;;;5111797;28;20050;-64
2022/11/23 08:17:56;;;;;;;14.90;8.90;;;8.00;99.90;;;;;;5111990;28;20122;-64
2022/11/23 08:20:21;;;;;;;14.48;8.05;;;8.00;99.90;;;;;;5112695;28;20489;-65
2022/11/23 08:22:47;;;;;;;18.55;9.40;;;8.10;99.90;;;;;;5115464;28;20032;-64
2022/11/23 08:25:13;;;;;;;12.52;7.90;;;8.20;99.90;;;;;;5115681;28;20035;-64
2022/11/23 08:27:38;;;;;;;22.80;8.75;;;8.20;99.90;;;;;;5115546;28;20405;-65
2022/11/23 08:30:04;;;;;;;19.80;7.70;;;8.20;99.90;;;;;;5115922;28;20492;-65
2022/11/23 08:32:30;;;;;;;15.77;7.55;;;8.20;99.90;;;;;;5097542;28;20042;-64
2022/11/23 08:34:56;;;;;;;18.05;8.18;;;8.20;99.90;;;;;;5115765;28;20039;-64
2022/11/23 08:37:21;;;;;;;16.63;7.40;;;8.10;99.90;;;;;;5115599;28;20397;-64
2022/11/23 08:39:47;;;;;;;17.67;7.22;;;8.20;99.90;;;;;;5115162;28;20039;-64
2022/11/23 08:42:12;;;;;;;12.70;6.50;;;8.20;99.90;;;;;;5115345;28;20049;-64
2022/11/23 08:44:38;;;;;;;17.08;7.40;;;8.20;99.90;;;;;;5115323;28;20024;-65
2022/11/23 08:47:04;;;;;;;12.73;6.38;;;8.10;99.90;;;;;;5115251;28;20473;-64
2022/11/23 08:49:29;;;;;;;15.38;6.53;;;8.20;99.90;;;;;;5115082;28;20110;-64
2022/11/23 08:51:55;;;;;;;16.73;7.65;;;8.20;99.90;;;;;;5115010;28;20466;-64
2022/11/23 08:54:23;;;;;;;18.08;6.95;;;8.20;99.90;;;;;;5114824;28;20042;-64
2022/11/23 08:56:49;;;;;;;17.63;6.95;;;8.20;99.90;;;;;;5096680;28;20042;-64
2022/11/23 08:59:16;;;;;;;14.13;6.57;;;8.30;99.90;;;;;;5115091;28;20089;-65
2022/11/23 09:01:42;;;;;;;17.10;6.18;;;8.30;99.90;;;;;;5114792;28;20040;-64
2022/11/23 09:04:08;;;;;;;13.43;6.18;;;8.30;99.90;;;;;;5114855;28;20439;-65
2022/11/23 09:06:34;;;;;;;13.57;6.47;;;8.40;99.90;;;;;;5114699;28;20043;-65
2022/11/23 09:09:00;;;;;;;13.75;6.10;;;8.40;99.90;;;;;;5114574;28;20043;-64
2022/11/23 09:11:26;;;;;;;15.02;6.80;;;8.30;99.90;;;;;;5114400;28;20109;-65
2022/11/23 09:13:51;;;;;;;21.33;6.82;;;8.50;99.90;;;;;;5114713;28;20126;-64
2022/11/23 09:16:17;;;;;;;10.70;6.15;;;8.40;99.90;;;;;;5114647;28;20039;-65
2022/11/23 09:18:43;;;;;;;18.13;5.93;;;8.50;99.90;;;;;;5114706;28;20080;-64
2022/11/23 09:21:09;;;;;;;15.13;6.75;;;8.60;99.90;;;;;;5095902;28;20040;-64
2022/11/23 09:23:35;;;;;;;13.77;6.00;;;8.50;99.90;;;;;;5114335;28;20035;-64
2022/11/23 09:26:01;;;;;;;15.30;5.57;;;8.50;99.90;;;;;;5114208;28;20040;-65
2022/11/23 09:28:28;;;;;;;14.38;6.03;;;8.60;99.90;;;;;;5114326;28;20080;-65
2022/11/23 09:30:54;;;;;;;14.15;5.55;;;8.60;99.90;;;;;;5114047;28;20513;-65
2022/11/23 09:33:21;;;;;;;19.88;5.65;;;8.60;99.90;;;;;;5113562;28;20039;-65
2022/11/23 09:35:47;;;;;;;14.25;5.20;;;8.70;99.90;;;;;;5113909;28;20036;-65
2022/11/23 09:38:12;;;;;;;15.05;5.68;;;8.70;99.90;;;;;;5113838;28;20044;-65
2022/11/23 09:40:40;;;;;;;18.77;6.18;;;8.80;99.90;;;;;;5113771;28;20048;-65
2022/11/23 09:43:37;;;;;;;17.17;5.97;;;8.80;99.90;;;;;;5114136;28;20035;-65
2022/11/23 09:46:30;;;;;;;14.32;5.25;;;8.80;99.90;;;;;;5114218;28;20043;-65
2022/11/23 09:49:15;;;;;;;13.57;4.60;;;8.90;99.90;;;;;;5011420;28;20480;-64
2022/11/23 09:51:41;;;;;;;13.50;4.97;;;8.90;99.90;;;;;;5011146;28;20058;-65
2022/11/23 09:54:24;;;;;;;16.63;4.63;;;8.90;99.90;;;;;;5011159;28;20515;-64
2022/11/23 09:56:52;;;;;;;13.52;4.78;;;9.00;99.90;;;;;;5011137;28;20249;-65
2022/11/23 09:59:41;;;;;;;13.75;5.10;;;9.00;99.90;;;;;;5011169;28;20120;-64
2022/11/23 10:02:22;;;;;;;11.20;3.92;;;9.00;99.90;;;;;;5011177;28;20145;-64
2022/11/23 10:04:49;;;;;;;10.48;4.05;;;9.00;99.90;;;;;;4994788;28;20038;-64
2022/11/23 10:07:21;;;;;;;13.80;4.15;;;9.00;99.90;;;;;;5010997;28;20076;-65
2022/11/23 10:10:08;;;;;;;19.42;4.57;;;9.00;99.90;;;;;;5011197;28;20041;-64
2022/11/23 10:13:21;;;;;;;16.20;4.35;;;9.00;99.90;;;;;;5010801;28;20169;-64
2022/11/23 10:15:55;;;;;;;9.80;4.28;;;9.00;99.90;;;;;;4952944;29;20051;-64
2022/11/23 10:18:27;;;;;;;15.38;5.00;;;9.00;99.90;;;;;;4952374;29;20051;-65
2022/11/23 10:21:12;;;;;;;17.30;4.70;;;8.90;99.90;;;;;;4952086;29;20533;-64
2022/11/23 10:23:54;;;;;;;13.95;4.78;;;9.00;99.90;;;;;;4952424;29;20047;-65
2022/11/23 10:26:26;;;;;;;12.45;4.15;;;9.00;99.90;;;;;;5000766;28;20543;-64
2022/11/23 10:28:53;;;;;;;10.70;4.70;;;9.00;99.90;;;;;;5030278;28;20052;-64
2022/11/23 10:31:22;;;;;;;20.08;5.05;;;9.00;99.90;;;;;;5030288;28;20524;-65
2022/11/23 10:34:13;;;;;;;11.05;4.50;;;9.00;99.90;;;;;;5030131;28;20048;-64
2022/11/23 10:36:40;;;;;;;10.75;4.47;;;9.10;99.90;;;;;;5030116;28;20045;-64
2022/11/23 10:39:23;;;;;;;16.60;5.47;;;9.00;99.90;;;;;;5029993;28;20053;-65
2022/11/23 10:41:51;;;;;;;12.80;4.50;;;9.00;99.90;;;;;;5030032;28;20076;-65
2022/11/23 10:44:22;;;;;;;10.07;4.25;;;9.00;99.90;;;;;;5029416;28;20053;-65
2022/11/23 10:46:48;;;;;;;11.48;4.18;;;9.00;99.90;;;;;;5030031;28;20112;-64
2022/11/23 10:49:27;;;;;;;12.95;4.63;;;9.00;99.90;;;;;;5029874;28;20108;-64
2022/11/23 10:51:54;;;;;;;18.95;4.63;;;9.00;99.90;;;;;;5076845;28;20062;-64
2022/11/23 10:54:30;;;;;;;9.93;3.20;;;9.00;99.90;;;;;;5092096;28;20480;-64
2022/11/23 10:56:58;;;;;;;11.93;4.00;;;9.00;99.90;;;;;;5092248;28;20040;-64
2022/11/23 10:59:36;;;;;;;9.98;4.32;;;9.00;99.90;;;;;;5091992;28;20048;-64
2022/11/23 11:02:13;;;;;;;13.68;3.45;;;9.00;99.90;;;;;;5092369;28;20083;-64
2022/11/23 11:04:39;;;;;;;12.50;3.60;;;9.30;99.90;;;;;;5090931;28;20501;-65
2022/11/23 11:07:27;;;;;;;15.70;3.72;;;9.00;99.90;;;;;;5091960;28;20044;-64
2022/11/23 11:09:56;;;;;;;17.25;4.32;;;9.00;99.90;;;;;;5091837;28;20039;-64
2022/11/23 11:12:22;;;;;;;17.48;4.88;;;9.60;99.90;;;;;;5091896;28;20472;-64
2022/11/23 11:14:55;;;;;;;16.02;4.30;;;9.10;99.90;;;;;;5091765;28;20490;-64
2022/11/23 11:17:31;;;;;;;16.08;4.35;;;9.10;99.90;;;;;;5091937;28;20032;-64
2022/11/23 11:19:58;;;;;;;15.10;4.43;;;9.20;99.90;;;;;;5097157;28;20091;-65
2022/11/23 11:22:28;;;;;;;18.83;4.15;;;9.30;99.90;;;;;;5111997;28;20134;-64
2022/11/23 11:24:54;;;;;;;12.90;4.20;;;9.30;99.90;;;;;;5094139;28;20482;-64
2022/11/23 11:27:22;;;;;;;12.00;3.90;;;9.40;99.90;;;;;;5112268;28;20144;-64
2022/11/23 11:29:52;;;;;;;16.77;3.40;;;9.50;99.90;;;;;;5112288;28;20036;-65
2022/11/23 11:32:35;;;;;;;14.82;4.57;;;9.70;99.90;;;;;;5111922;28;20038;-64
2022/11/23 11:35:13;;;;;;;13.98;4.05;;;9.80;99.90;;;;;;5111987;28;20032;-64
2022/11/23 11:37:47;;;;;;;12.95;3.53;;;9.90;99.90;;;;;;5111981;28;20538;-64
2022/11/23 11:40:34;;;;;;;14.07;4.22;;;10.00;99.90;;;;;;5111873;28;20054;-64
2022/11/23 11:43:06;;;;;;;16.80;3.05;;;10.10;99.90;;;;;;5112033;28;20047;-64
2022/11/23 11:45:37;;;;;;;16.10;2.72;;;10.20;99.90;;;;;;5111683;28;20114;-63
2022/11/23 11:48:12;;;;;;;15.98;4.00;;;10.20;99.90;;;;;;5111888;28;20036;-64
2022/11/23 11:50:52;;;;;;;13.85;3.50;;;10.10;99.90;;;;;;5112353;28;20104;-64
2022/11/23 11:53:26;;;;;;;11.35;3.50;;;10.00;99.90;;;;;;5111755;28;20145;-63
2022/11/23 11:55:58;;;;;;;15.98;3.75;;;10.20;99.90;;;;;;5113874;28;20044;-64
2022/11/23 11:58:25;;;;;;;19.98;3.75;;;10.20;99.90;;;;;;5115248;28;20419;-64
2022/11/23 12:01:03;;;;;;;14.43;3.05;;;10.50;99.90;;;;;;5097466;28;20591;-64
2022/11/23 12:03:41;;;;;;;12.43;3.20;;;10.60;99.90;;;;;;5115564;28;20045;-64
2022/11/23 12:06:22;;;;;;;16.55;3.60;;;10.70;99.90;;;;;;5115811;28;20039;-63
2022/11/23 12:09:00;;;;;;;12.00;3.10;;;10.70;99.90;;;;;;5114335;28;20049;-64
2022/11/23 12:11:26;;;;;;;18.55;3.50;;;10.70;99.90;;;;;;5113256;28;20043;-64
2022/11/23 12:13:58;;;;;;;12.15;3.05;;;10.70;99.90;;;;;;5114992;28;20111;-63
2022/11/23 12:16:38;;;;;;;17.20;3.40;;;10.70;99.90;;;;;;5115503;28;20077;-64
2022/11/23 12:19:18;;;;;;;17.30;3.33;;;10.60;99.90;;;;;;5115609;28;20039;-63
2022/11/23 12:22:02;;;;;;;;;;;10.60;99.90;;;;;;5115339;28;20047;-64
2022/11/23 12:25:00;;;;;;;11.93;3.25;;;10.60;99.90;;;;;;5115335;28;19977;-63
2022/11/23 12:27:57;;;;;;;12.73;3.83;;;10.50;99.90;;;;;;5012613;28;20501;-63
2022/11/23 12:30:25;;;;;;;17.33;3.00;;;10.50;99.90;;;;;;5012747;28;20116;-65
2022/11/23 12:33:30;;;;;;;17.75;3.10;;;10.50;99.90;;;;;;5012554;28;20195;-64
2022/11/23 12:36:26;;;;;;;11.18;2.90;;;10.50;99.90;;;;;;5012504;28;20053;-64
2022/11/23 12:39:16;;;;;;;12.75;2.90;;;10.50;99.90;;;;;;5011456;28;20056;-65
2022/11/23 12:41:55;;;;;;;18.77;3.08;;;10.40;99.90;;;;;;5010576;28;20400;-64
2022/11/23 12:44:49;;;;;;;15.05;3.00;;;10.40;99.90;;;;;;5010358;28;20125;-64
2022/11/23 12:47:36;;;;;;;10.95;2.60;;;10.40;99.90;;;;;;5012318;28;20077;-64
2022/11/23 12:50:08;;;;;;;10.40;3.05;;;10.40;99.90;;;;;;5012208;28;20045;-64